createdAt,value
2022-12-31T00:07:47.480Z,12.71
2022-12-31T00:18:10.111Z,12.81
2022-12-31T00:28:31.688Z,12.90
2022-12-31T00:38:54.832Z,12.87
2022-12-31T00:49:16.490Z,12.75
2022-12-31T00:59:38.009Z,12.56
2022-12-31T01:09:59.474Z,12.51
2022-12-31T01:20:20.965Z,12.44
2022-12-31T01:30:42.449Z,12.43
2022-12-31T01:41:05.161Z,12.44
2022-12-31T01:51:30.710Z,12.46
2022-12-31T02:01:52.844Z,12.48
2022-12-31T02:12:14.742Z,12.56
2022-12-31T02:22:45.197Z,12.60
2022-12-31T02:33:14.268Z,12.60
2022-12-31T02:43:35.805Z,12.57
2022-12-31T02:54:03.224Z,12.57
2022-12-31T03:04:32.310Z,12.57
2022-12-31T03:14:54.067Z,12.56
2022-12-31T03:25:33.917Z,12.53
2022-12-31T03:35:55.459Z,12.50
2022-12-31T03:46:16.974Z,12.43
2022-12-31T03:56:38.484Z,12.42
2022-12-31T04:07:00.398Z,12.32
2022-12-31T04:17:21.751Z,12.28
2022-12-31T04:27:46.057Z,12.22
2022-12-31T04:38:07.569Z,12.17
2022-12-31T04:48:29.101Z,12.08
2022-12-31T04:58:50.838Z,12.08
2022-12-31T05:09:12.357Z,12.02
2022-12-31T05:19:33.845Z,11.99
2022-12-31T05:29:55.383Z,11.95
2022-12-31T05:40:17.147Z,11.97
2022-12-31T05:50:38.508Z,11.94
2022-12-31T06:01:00.167Z,11.93
2022-12-31T06:11:21.790Z,11.94
2022-12-31T06:21:43.308Z,11.98
2022-12-31T06:32:05.204Z,11.90
2022-12-31T06:42:28.599Z,11.86
2022-12-31T06:52:50.142Z,11.82
2022-12-31T07:03:14.645Z,11.81
2022-12-31T07:13:50.781Z,11.81
2022-12-31T07:24:12.962Z,11.75
2022-12-31T07:34:54.517Z,11.80
2022-12-31T07:45:30.238Z,11.83
2022-12-31T07:55:58.450Z,11.89
2022-12-31T08:06:52.158Z,11.91
2022-12-31T08:17:16.391Z,11.96
2022-12-31T08:28:14.617Z,12.00
2022-12-31T08:39:02.962Z,12.01
2022-12-31T08:49:29.255Z,12.08
2022-12-31T08:59:50.996Z,12.13
2022-12-31T09:10:28.442Z,12.27
2022-12-31T09:20:50.362Z,12.30
2022-12-31T09:31:16.073Z,12.37
2022-12-31T09:42:01.760Z,12.48
2022-12-31T09:52:55.210Z,12.60
2022-12-31T10:03:26.775Z,12.74
2022-12-31T10:14:21.856Z,13.02
2022-12-31T10:24:43.398Z,13.22
2022-12-31T10:35:13.896Z,13.42
2022-12-31T10:45:48.133Z,13.68
2022-12-31T10:56:09.526Z,13.70
2022-12-31T11:06:37.066Z,13.87
2022-12-31T11:16:58.866Z,14.00
2022-12-31T11:27:48.989Z,14.02
2022-12-31T11:38:29.057Z,14.01
2022-12-31T11:48:57.519Z,14.09
2022-12-31T11:59:19.929Z,14.23
2022-12-31T12:09:43.822Z,14.02
2022-12-31T12:20:14.658Z,14.03
2022-12-31T12:30:37.965Z,14.08
2022-12-31T12:41:00.576Z,14.15
2022-12-31T12:51:31.223Z,14.16
2022-12-31T13:01:58.957Z,14.20
2022-12-31T13:13:05.149Z,14.28
2022-12-31T13:23:26.539Z,14.54
2022-12-31T13:33:50.942Z,14.69
2022-12-31T13:44:44.900Z,14.75
2022-12-31T13:55:06.287Z,14.71
2022-12-31T14:05:36.249Z,14.56
2022-12-31T14:16:03.839Z,14.45
2022-12-31T14:26:33.716Z,14.33
2022-12-31T14:37:04.256Z,14.24
2022-12-31T14:47:38.026Z,14.18
2022-12-31T14:58:27.270Z,14.11
2022-12-31T15:08:49.476Z,14.00
2022-12-31T15:19:16.828Z,13.95
2022-12-31T15:29:45.508Z,14.03
2022-12-31T15:40:18.061Z,14.05
2022-12-31T15:50:41.770Z,14.14
2022-12-31T16:01:24.931Z,14.33
2022-12-31T16:11:46.725Z,14.50
2022-12-31T16:22:13.506Z,14.54
2022-12-31T16:32:38.282Z,14.51
2022-12-31T16:43:00.476Z,14.40
2022-12-31T16:53:26.899Z,14.32
2022-12-31T17:03:53.533Z,14.58
2022-12-31T17:14:17.571Z,14.55
2022-12-31T17:24:39.569Z,14.44
2022-12-31T17:35:01.070Z,14.39
2022-12-31T17:45:22.545Z,14.32
2022-12-31T17:55:47.918Z,14.30
2022-12-31T18:06:16.054Z,14.29
2022-12-31T18:16:38.134Z,14.37
2022-12-31T18:26:59.509Z,14.47
2022-12-31T18:37:22.458Z,14.61
2022-12-31T18:47:44.027Z,14.66
2022-12-31T18:58:05.493Z,14.74
2022-12-31T19:08:26.834Z,14.56
2022-12-31T19:18:49.431Z,14.66
2022-12-31T19:29:16.143Z,14.77
2022-12-31T19:39:37.484Z,14.83
2022-12-31T19:49:58.816Z,14.73
2022-12-31T20:00:20.716Z,14.94
2022-12-31T20:10:42.476Z,15.16
2022-12-31T20:21:04.242Z,15.10
2022-12-31T20:31:26.676Z,15.18
2022-12-31T20:41:48.112Z,15.37
2022-12-31T20:52:09.502Z,15.56
2022-12-31T21:02:41.327Z,15.45
2022-12-31T21:13:03.733Z,15.40
2022-12-31T21:23:25.072Z,15.41
2022-12-31T21:33:47.057Z,15.42
2022-12-31T21:44:08.547Z,15.47
2022-12-31T21:54:48.609Z,15.47
2022-12-31T22:05:18.519Z,15.56
2022-12-31T22:15:43.960Z,15.51
2022-12-31T22:26:07.726Z,15.58
2022-12-31T22:36:29.241Z,15.56
2022-12-31T22:46:50.858Z,15.58
2022-12-31T22:57:17.833Z,15.47
2022-12-31T23:07:42.399Z,15.79
2022-12-31T23:18:22.484Z,15.58
2022-12-31T23:28:44.234Z,15.59
2022-12-31T23:39:05.596Z,15.64
2022-12-31T23:49:27.043Z,15.60
2022-12-31T23:59:48.433Z,15.53
